Time;durP1;ratioP1;P1;durP2;ratioP2;P2;SDS_P1;SDS_P2;PMS_P1;PMS_P2;Temp;Humidity;BMP_temperature;BMP_pressure;BME280_temperature;BME280_humidity;BME280_pressure;Samples;Min_cycle;Max_cycle;Signal;HPM_P1;HPM_P2
2022/07/03 00:01:28;;;;;;;4.30;3.93;;;20.10;99.50;;;;;;5094384;28;20469;-69
2022/07/03 00:03:55;;;;;;;4.57;4.20;;;20.10;99.40;;;;;;5094012;28;20927;-69
2022/07/03 00:06:22;;;;;;;4.40;4.10;;;20.10;99.90;;;;;;5094310;28;20551;-70
2022/07/03 00:08:49;;;;;;;5.50;5.10;;;20.10;99.90;;;;;;5094030;28;20536;-69
2022/07/03 00:11:16;;;;;;;4.63;4.20;;;20.10;99.90;;;;;;5093873;28;20467;-69
2022/07/03 00:13:43;;;;;;;5.00;4.60;;;20.10;99.90;;;;;;5093973;28;20529;-70
2022/07/03 00:16:11;;;;;;;5.17;4.20;;;20.10;99.90;;;;;;5094101;28;20895;-70
2022/07/03 00:18:38;;;;;;;4.80;4.40;;;20.10;99.90;;;;;;5093977;28;20533;-69
2022/07/03 00:21:08;;;;;;;4.30;4.00;;;20.10;99.90;;;;;;5094020;28;20548;-70
2022/07/03 00:23:41;;;;;;;5.03;4.53;;;20.00;99.90;;;;;;5094036;28;20533;-69
2022/07/03 00:26:08;;;;;;;4.20;3.90;;;20.00;99.90;;;;;;5094048;28;20440;-69
2022/07/03 00:28:36;;;;;;;5.13;4.73;;;19.90;99.90;;;;;;5093706;28;20444;-70
2022/07/03 00:31:03;;;;;;;4.63;4.20;;;19.80;99.90;;;;;;5093905;28;20467;-69
2022/07/03 00:33:35;;;;;;;4.63;4.23;;;19.90;99.90;;;;;;5093890;28;20525;-69
2022/07/03 00:36:02;;;;;;;4.47;4.13;;;19.90;99.90;;;;;;5093604;28;20832;-70
2022/07/03 00:38:29;;;;;;;4.53;4.13;;;19.80;99.90;;;;;;5093760;28;20539;-70
2022/07/03 00:40:56;;;;;;;4.77;4.00;;;19.80;99.90;;;;;;5093792;28;20496;-69
2022/07/03 00:43:26;;;;;;;4.43;4.13;;;19.70;99.90;;;;;;5093799;28;20439;-69
2022/07/03 00:45:54;;;;;;;6.90;4.00;;;19.70;99.90;;;;;;5093634;28;20436;-70
2022/07/03 00:48:21;;;;;;;4.40;4.10;;;19.60;99.90;;;;;;5093636;28;20532;-69
2022/07/03 00:50:51;;;;;;;3.90;3.60;;;19.50;99.90;;;;;;5093693;28;20551;-70
2022/07/03 00:53:24;;;;;;;3.60;3.40;;;19.40;99.90;;;;;;5093663;28;20437;-69
2022/07/03 00:55:53;;;;;;;4.50;4.20;;;19.40;99.90;;;;;;5093277;28;20560;-69
2022/07/03 00:58:21;;;;;;;4.00;3.70;;;19.40;99.90;;;;;;5093504;28;20525;-69
2022/07/03 01:00:50;;;;;;;4.73;4.43;;;19.30;99.90;;;;;;5093440;28;20547;-69
2022/07/03 01:03:19;;;;;;;4.63;4.23;;;19.40;99.90;;;;;;5093782;28;20536;-69
2022/07/03 01:05:50;;;;;;;5.18;4.78;;;19.30;99.90;;;;;;5093352;28;20528;-70
2022/07/03 01:08:22;;;;;;;4.67;4.37;;;19.30;99.90;;;;;;5093359;28;20272;-69
2022/07/03 01:10:55;;;;;;;4.88;4.47;;;19.30;99.90;;;;;;5093320;28;20550;-69
2022/07/03 01:13:32;;;;;;;5.03;4.60;;;19.30;99.90;;;;;;5093541;28;20218;-70
2022/07/03 01:16:06;;;;;;;5.00;4.60;;;19.30;99.90;;;;;;5093220;28;20571;-69
2022/07/03 01:18:41;;;;;;;4.90;4.50;;;19.30;99.90;;;;;;5093509;28;20491;-69
2022/07/03 01:21:09;;;;;;;4.90;4.50;;;19.30;99.90;;;;;;5093113;28;20493;-70
2022/07/03 01:23:57;;;;;;;4.90;4.60;;;19.30;99.90;;;;;;5093866;28;20517;-69
2022/07/03 01:26:28;;;;;;;6.07;4.67;;;19.20;99.90;;;;;;5097167;28;20917;-70
2022/07/03 01:28:59;;;;;;;5.30;4.90;;;19.00;99.90;;;;;;5097374;28;20863;-69
2022/07/03 01:31:27;;;;;;;5.10;4.70;;;19.10;99.90;;;;;;5096990;28;21013;-70
2022/07/03 01:33:54;;;;;;;4.80;4.40;;;19.10;99.90;;;;;;5096963;28;20958;-70
2022/07/03 01:36:24;;;;;;;5.07;4.67;;;19.10;99.90;;;;;;5096821;28;20555;-69
2022/07/03 01:38:52;;;;;;;5.00;4.60;;;19.10;99.90;;;;;;5096948;28;20438;-70
2022/07/03 01:41:19;;;;;;;5.00;4.60;;;19.10;99.90;;;;;;5097138;28;20629;-69
2022/07/03 01:43:49;;;;;;;4.68;4.38;;;19.10;99.90;;;;;;5096968;28;20289;-70
2022/07/03 01:46:18;;;;;;;4.70;4.40;;;19.20;99.90;;;;;;5097009;28;20307;-70
2022/07/03 01:48:46;;;;;;;5.20;4.70;;;19.20;99.90;;;;;;5096872;28;20986;-69
2022/07/03 01:51:15;;;;;;;4.80;4.30;;;19.10;99.90;;;;;;5096597;28;20227;-69
2022/07/03 01:53:45;;;;;;;5.25;4.85;;;19.00;99.90;;;;;;5096710;28;20444;-73
2022/07/03 01:56:13;;;;;;;4.32;4.03;;;19.00;99.90;;;;;;5097009;28;20309;-70
2022/07/03 01:58:39;;;;;;;4.47;4.18;;;19.00;99.90;;;;;;5096604;28;20736;-69
2022/07/03 02:01:25;;;;;;;5.00;4.55;;;19.00;99.90;;;;;;5096584;28;20309;-69
2022/07/03 02:04:03;;;;;;;4.80;4.30;;;19.00;99.90;;;;;;5096208;28;20210;-70
2022/07/03 02:06:40;;;;;;;6.93;4.72;;;19.00;99.90;;;;;;5096921;28;20267;-69
2022/07/03 02:09:08;;;;;;;4.35;4.05;;;19.00;99.90;;;;;;5096624;28;20631;-69
2022/07/03 02:11:38;;;;;;;4.40;4.10;;;18.90;99.90;;;;;;5096151;28;20317;-69
2022/07/03 02:14:12;;;;;;;4.97;4.57;;;19.00;99.90;;;;;;5096018;28;20295;-69
2022/07/03 02:16:49;;;;;;;4.65;4.13;;;18.90;99.90;;;;;;5096698;28;20221;-69
2022/07/03 02:19:17;;;;;;;4.53;4.00;;;18.90;99.90;;;;;;5096255;28;20294;-69
2022/07/03 02:21:50;;;;;;;4.30;4.00;;;18.90;99.90;;;;;;5095956;28;20309;-69
2022/07/03 02:24:22;;;;;;;4.97;4.57;;;18.70;99.90;;;;;;5096055;28;20231;-70
2022/07/03 02:26:56;;;;;;;4.70;4.38;;;18.80;99.90;;;;;;5096239;28;20209;-69
2022/07/03 02:29:32;;;;;;;4.70;4.30;;;18.70;99.90;;;;;;5096125;28;20619;-70
2022/07/03 02:32:04;;;;;;;5.68;4.78;;;18.70;99.90;;;;;;5096209;28;20424;-69
2022/07/03 02:34:33;;;;;;;4.88;4.47;;;18.70;99.90;;;;;;5095489;28;20198;-69
2022/07/03 02:37:10;;;;;;;4.75;4.15;;;18.70;99.90;;;;;;5095690;28;20723;-69
2022/07/03 02:39:45;;;;;;;5.43;5.03;;;18.70;99.90;;;;;;5095925;28;20203;-70
2022/07/03 02:42:23;;;;;;;5.47;5.07;;;18.70;99.90;;;;;;5095988;28;20186;-69
2022/07/03 02:44:53;;;;;;;6.13;5.63;;;18.70;99.90;;;;;;5095625;28;20328;-69
2022/07/03 02:47:28;;;;;;;5.72;5.20;;;18.70;99.90;;;;;;5095778;28;20449;-69
2022/07/03 02:50:03;;;;;;;5.80;5.22;;;18.80;99.90;;;;;;5095737;28;20225;-69
2022/07/03 02:52:35;;;;;;;6.63;5.20;;;18.70;99.90;;;;;;5095831;28;20186;-69
2022/07/03 02:55:08;;;;;;;5.68;5.18;;;18.70;99.90;;;;;;5095410;28;20293;-69
2022/07/03 02:57:40;;;;;;;5.65;5.25;;;18.70;99.90;;;;;;5095541;28;20222;-69
2022/07/03 03:00:09;;;;;;;4.65;4.35;;;18.70;99.90;;;;;;5095592;28;20225;-69
2022/07/03 03:02:55;;;;;;;4.50;4.10;;;18.70;99.90;;;;;;5095507;28;20202;-69
2022/07/03 03:05:32;;;;;;;4.25;3.95;;;18.70;99.90;;;;;;5095292;28;20263;-69
2022/07/03 03:08:19;;;;;;;4.43;4.03;;;18.70;99.90;;;;;;5095096;28;20301;-69
2022/07/03 03:10:47;;;;;;;4.38;4.00;;;18.70;99.90;;;;;;5095486;28;20655;-69
2022/07/03 03:13:19;;;;;;;4.50;4.10;;;18.70;99.90;;;;;;5095219;28;20253;-69
2022/07/03 03:15:55;;;;;;;5.30;4.90;;;18.70;99.90;;;;;;5095094;28;20212;-69
2022/07/03 03:18:28;;;;;;;4.90;4.60;;;18.70;99.90;;;;;;5095099;28;20312;-69
2022/07/03 03:20:59;;;;;;;5.57;5.18;;;18.70;99.90;;;;;;5095347;28;20226;-69
2022/07/03 03:23:34;;;;;;;6.50;5.63;;;18.60;99.90;;;;;;5095092;28;20203;-69
2022/07/03 03:26:02;;;;;;;5.30;4.90;;;18.60;99.90;;;;;;5095100;28;20230;-69
2022/07/03 03:28:29;;;;;;;4.82;4.43;;;18.60;99.90;;;;;;5095148;28;20199;-69
2022/07/03 03:30:56;;;;;;;4.90;4.50;;;18.60;99.90;;;;;;5094955;28;20257;-69
2022/07/03 03:33:24;;;;;;;4.72;4.32;;;18.70;99.90;;;;;;5095046;28;20256;-69
2022/07/03 03:35:51;;;;;;;4.88;4.45;;;18.60;99.90;;;;;;5094747;28;20241;-69
2022/07/03 03:38:19;;;;;;;4.53;4.15;;;18.60;99.90;;;;;;5094788;28;20308;-69
2022/07/03 03:40:46;;;;;;;4.97;4.57;;;18.40;99.90;;;;;;5094806;28;20222;-69
2022/07/03 03:43:13;;;;;;;5.25;4.85;;;18.30;99.90;;;;;;5094553;28;20201;-69
2022/07/03 03:45:40;;;;;;;5.20;4.80;;;18.30;99.90;;;;;;5094294;28;20238;-70
2022/07/03 03:48:07;;;;;;;5.40;5.00;;;18.30;99.90;;;;;;5094034;28;20237;-69
2022/07/03 03:50:35;;;;;;;5.65;5.20;;;18.30;99.90;;;;;;5094300;28;20764;-69
2022/07/03 03:53:02;;;;;;;4.95;4.55;;;18.30;99.90;;;;;;5094602;28;20286;-69
2022/07/03 03:55:29;;;;;;;4.50;4.10;;;18.30;99.90;;;;;;5094279;28;20698;-69
2022/07/03 03:57:56;;;;;;;5.07;4.78;;;18.40;99.90;;;;;;5094333;28;20304;-69
2022/07/03 04:00:23;;;;;;;4.90;4.53;;;18.40;99.90;;;;;;5094361;28;20316;-69
2022/07/03 04:02:50;;;;;;;5.18;4.78;;;18.40;99.90;;;;;;5094395;28;20289;-69
2022/07/03 04:05:16;;;;;;;5.15;4.75;;;18.30;99.90;;;;;;5094034;28;20620;-69
2022/07/03 04:07:45;;;;;;;4.88;4.43;;;18.40;99.90;;;;;;5093938;28;20269;-69
2022/07/03 04:10:12;;;;;;;4.75;4.35;;;18.40;99.90;;;;;;5094126;28;20277;-69
2022/07/03 04:12:38;;;;;;;5.15;4.75;;;18.30;99.90;;;;;;5093948;28;20205;-69
2022/07/03 04:15:06;;;;;;;4.93;4.53;;;18.20;99.90;;;;;;5093687;28;20228;-69
2022/07/03 04:17:33;;;;;;;4.93;4.53;;;18.10;99.90;;;;;;5094061;28;20587;-69
2022/07/03 04:20:00;;;;;;;4.90;4.50;;;18.10;99.90;;;;;;5094265;28;20261;-69
2022/07/03 04:22:27;;;;;;;4.70;4.30;;;18.10;99.90;;;;;;5094149;28;20240;-69
2022/07/03 04:24:55;;;;;;;5.85;4.57;;;18.20;99.90;;;;;;5093849;28;20289;-69
2022/07/03 04:27:22;;;;;;;4.97;4.47;;;18.10;99.90;;;;;;5093952;28;20232;-69
2022/07/03 04:29:48;;;;;;;5.43;5.03;;;18.10;99.90;;;;;;5093640;28;20271;-69
2022/07/03 04:32:15;;;;;;;5.28;4.88;;;18.10;99.90;;;;;;5094004;28;20238;-69
2022/07/03 04:34:42;;;;;;;5.50;5.05;;;18.20;99.90;;;;;;5093656;28;20209;-69
2022/07/03 04:37:09;;;;;;;5.50;5.00;;;18.20;99.90;;;;;;5093805;28;20260;-69
2022/07/03 04:39:36;;;;;;;4.80;4.50;;;18.10;99.90;;;;;;5093755;28;20248;-69
2022/07/03 04:42:05;;;;;;;4.90;4.50;;;18.20;99.90;;;;;;5093556;28;20202;-69
2022/07/03 04:44:32;;;;;;;4.97;4.57;;;18.20;99.90;;;;;;5093654;28;20228;-69
2022/07/03 04:46:58;;;;;;;4.93;4.53;;;18.30;99.90;;;;;;5093597;28;20739;-69
2022/07/03 04:49:25;;;;;;;4.90;4.50;;;18.30;99.90;;;;;;5093551;28;20698;-69
2022/07/03 04:51:53;;;;;;;4.50;4.20;;;18.40;99.90;;;;;;5093436;28;20207;-69
2022/07/03 04:54:20;;;;;;;5.35;4.45;;;18.40;99.90;;;;;;5093317;28;20213;-70
2022/07/03 04:56:47;;;;;;;5.75;4.60;;;18.50;99.90;;;;;;5093969;28;20233;-69
2022/07/03 04:59:15;;;;;;;5.30;4.90;;;18.50;99.90;;;;;;5096999;28;20233;-69
2022/07/03 05:01:42;;;;;;;5.38;4.97;;;18.50;99.90;;;;;;5097559;28;20305;-69
2022/07/03 05:04:08;;;;;;;4.85;4.45;;;18.40;99.90;;;;;;5097656;28;20244;-70
2022/07/03 05:06:35;;;;;;;5.28;4.88;;;18.40;99.90;;;;;;5097570;28;20300;-69
2022/07/03 05:09:02;;;;;;;5.43;4.93;;;18.40;99.90;;;;;;5097522;28;20726;-69
2022/07/03 05:11:29;;;;;;;5.55;5.05;;;18.40;99.90;;;;;;5097361;28;20257;-69
2022/07/03 05:13:56;;;;;;;4.85;4.45;;;18.30;99.90;;;;;;5097468;28;20289;-69
2022/07/03 05:16:24;;;;;;;5.30;4.90;;;18.30;99.90;;;;;;5097576;28;20234;-69
2022/07/03 05:18:51;;;;;;;5.18;4.88;;;18.40;99.90;;;;;;5097362;28;20257;-69
2022/07/03 05:21:18;;;;;;;4.82;4.43;;;18.50;99.90;;;;;;5097342;28;20260;-69
2022/07/03 05:23:45;;;;;;;5.47;5.00;;;18.40;99.90;;;;;;5097291;28;20289;-68
2022/07/03 05:26:11;;;;;;;5.53;4.93;;;18.50;99.90;;;;;;5097437;28;20230;-69
2022/07/03 05:28:39;;;;;;;5.05;4.75;;;18.60;99.90;;;;;;5097172;28;20194;-69
2022/07/03 05:31:05;;;;;;;5.60;5.20;;;18.70;99.90;;;;;;5097321;28;20251;-69
2022/07/03 05:33:34;;;;;;;5.82;5.22;;;18.80;99.90;;;;;;5097252;28;20605;-69
2022/07/03 05:36:01;;;;;;;5.37;4.97;;;18.90;99.90;;;;;;5097011;28;20245;-69
2022/07/03 05:41:12;;;;;;;4.90;4.50;;;19.10;99.90;;;;;;5097015;28;20213;-69
2022/07/03 05:43:39;;;;;;;5.67;5.27;;;19.20;99.90;;;;;;5096938;28;20974;-69
2022/07/03 05:46:06;;;;;;;5.55;5.10;;;19.20;99.90;;;;;;5096861;28;20515;-69
2022/07/03 05:48:34;;;;;;;5.40;4.90;;;19.20;99.90;;;;;;5096909;28;20288;-69
2022/07/03 05:51:01;;;;;;;5.27;4.87;;;19.30;99.90;;;;;;5096624;28;20875;-69
2022/07/03 05:53:28;;;;;;;5.90;4.67;;;19.30;99.90;;;;;;5096737;28;20447;-69
2022/07/03 05:55:55;;;;;;;5.00;4.60;;;19.30;99.90;;;;;;5096563;28;20860;-69
2022/07/03 05:58:22;;;;;;;4.97;4.57;;;19.30;99.90;;;;;;5096700;28;20508;-69
2022/07/03 06:00:49;;;;;;;5.00;4.67;;;19.20;99.90;;;;;;5096638;28;20896;-70
2022/07/03 06:03:16;;;;;;;5.10;4.70;;;19.20;99.90;;;;;;5096722;28;20482;-69
2022/07/03 06:05:44;;;;;;;5.30;4.90;;;19.30;99.90;;;;;;5096531;28;20257;-69
2022/07/03 06:08:11;;;;;;;5.23;4.83;;;19.30;99.90;;;;;;5096378;28;20449;-69
2022/07/03 06:10:38;;;;;;;5.17;4.70;;;19.40;99.90;;;;;;5095640;28;20503;-69
2022/07/03 06:13:05;;;;;;;5.30;4.80;;;19.50;99.90;;;;;;5096585;28;20879;-69
2022/07/03 06:15:31;;;;;;;4.63;4.23;;;19.50;99.90;;;;;;5096084;28;20802;-69
2022/07/03 06:17:59;;;;;;;4.60;4.30;;;19.50;99.90;;;;;;5096322;28;20923;-69
2022/07/03 06:20:25;;;;;;;4.93;4.53;;;19.60;99.90;;;;;;5096402;28;20502;-69
2022/07/03 06:22:54;;;;;;;5.27;4.87;;;19.70;99.90;;;;;;5096168;28;20964;-69
2022/07/03 06:25:21;;;;;;;5.23;4.83;;;19.70;99.90;;;;;;5096115;28;20477;-69
2022/07/03 06:27:48;;;;;;;9.20;4.73;;;19.80;99.90;;;;;;5096173;28;20435;-69
2022/07/03 06:30:14;;;;;;;4.63;4.33;;;19.90;99.90;;;;;;5096066;28;20509;-70
2022/07/03 06:32:41;;;;;;;4.63;4.23;;;20.10;99.90;;;;;;5096125;28;20478;-70
2022/07/03 06:35:09;;;;;;;5.10;4.60;;;20.10;99.90;;;;;;5095997;28;20529;-70
2022/07/03 06:37:36;;;;;;;4.30;4.00;;;20.20;99.90;;;;;;5095983;28;20868;-69
2022/07/03 06:40:05;;;;;;;5.10;4.70;;;20.30;99.90;;;;;;5095785;28;21026;-69
2022/07/03 06:42:32;;;;;;;4.70;4.30;;;20.40;99.90;;;;;;5096069;28;20547;-69
2022/07/03 06:44:58;;;;;;;4.53;4.20;;;20.50;99.90;;;;;;5095454;28;20483;-70
2022/07/03 06:47:25;;;;;;;4.63;4.33;;;20.70;99.90;;;;;;5095851;28;20479;-70
2022/07/03 06:49:52;;;;;;;4.40;4.10;;;20.90;99.90;;;;;;5095746;28;20506;-70
2022/07/03 06:52:19;;;;;;;5.00;4.60;;;21.20;99.90;;;;;;5095869;28;20483;-69
2022/07/03 06:54:46;;;;;;;4.30;3.90;;;21.40;99.90;;;;;;5095360;28;20490;-70
2022/07/03 06:57:16;;;;;;;4.70;4.10;;;21.50;99.90;;;;;;5095628;28;20468;-69
2022/07/03 06:59:42;;;;;;;3.63;3.23;;;21.70;99.90;;;;;;5095238;28;21054;-70
2022/07/03 07:02:09;;;;;;;3.23;3.03;;;22.00;99.90;;;;;;5095689;28;20444;-69
2022/07/03 07:04:36;;;;;;;3.20;2.90;;;22.40;99.90;;;;;;5095329;28;20475;-70
2022/07/03 07:07:03;;;;;;;3.17;2.87;;;22.80;99.90;;;;;;5095265;28;20483;-70
2022/07/03 07:09:30;;;;;;;2.40;2.30;;;23.20;99.90;;;;;;5095327;28;20472;-70
2022/07/03 07:11:57;;;;;;;3.93;3.50;;;23.50;99.90;;;;;;5095401;28;20477;-69
2022/07/03 07:14:25;;;;;;;3.10;2.90;;;23.60;99.90;;;;;;5095196;28;20477;-70
2022/07/03 07:16:52;;;;;;;3.10;2.90;;;23.80;99.90;;;;;;5095304;28;20471;-69
2022/07/03 07:19:19;;;;;;;3.30;3.10;;;24.00;99.90;;;;;;5095073;28;20511;-70
2022/07/03 07:21:46;;;;;;;3.10;2.90;;;24.40;99.90;;;;;;5093842;28;20495;-69
2022/07/03 07:24:13;;;;;;;3.10;2.90;;;24.90;99.90;;;;;;5094875;28;20463;-70
2022/07/03 07:26:40;;;;;;;2.83;2.70;;;25.20;99.20;;;;;;5095128;28;20478;-70
2022/07/03 07:29:07;;;;;;;2.80;2.70;;;25.40;98.90;;;;;;5094833;28;20467;-70
2022/07/03 07:31:35;;;;;;;2.30;2.20;;;25.30;99.00;;;;;;5094718;28;20543;-69
2022/07/03 07:34:04;;;;;;;2.57;2.47;;;25.10;98.70;;;;;;5094807;28;20440;-69
2022/07/03 07:36:31;;;;;;;2.80;2.60;;;24.90;98.30;;;;;;5094993;28;20466;-70
2022/07/03 07:38:58;;;;;;;2.20;2.10;;;24.70;98.30;;;;;;5094748;28;20517;-69
2022/07/03 07:41:25;;;;;;;2.50;2.30;;;24.50;97.20;;;;;;5094659;28;20471;-69
2022/07/03 07:43:52;;;;;;;2.40;2.30;;;24.40;97.00;;;;;;5094581;28;20540;-69
2022/07/03 07:46:19;;;;;;;2.70;2.50;;;24.30;97.60;;;;;;5094599;28;20635;-69
2022/07/03 07:48:47;;;;;;;2.60;2.50;;;24.20;98.50;;;;;;5094660;28;20477;-69
2022/07/03 07:51:14;;;;;;;2.40;2.30;;;24.30;99.00;;;;;;5094250;28;20504;-69
2022/07/03 07:53:41;;;;;;;2.50;2.40;;;24.80;98.50;;;;;;5094572;28;20531;-70
2022/07/03 07:56:08;;;;;;;2.17;2.07;;;25.90;96.30;;;;;;5094605;28;20468;-70
2022/07/03 07:58:34;;;;;;;2.90;2.70;;;27.20;93.80;;;;;;5094394;28;20510;-70
2022/07/03 08:06:30;;;;;;;2.47;2.27;;;29.80;84.30;;;;;;5094073;28;20533;-70
2022/07/03 08:08:58;;;;;;;2.10;2.00;;;30.80;77.10;;;;;;5094285;28;20442;-70
2022/07/03 08:11:25;;;;;;;2.93;2.73;;;30.90;69.40;;;;;;5093975;28;20500;-70
2022/07/03 08:13:52;;;;;;;13.77;12.80;;;30.50;72.10;;;;;;5094140;28;20442;-70
2022/07/03 08:16:19;;;;;;;15.97;14.80;;;30.00;74.70;;;;;;5094287;28;20904;-70
2022/07/03 08:18:47;;;;;;;11.00;10.30;;;29.40;77.80;;;;;;5093875;28;21103;-70
2022/07/03 08:21:14;;;;;;;6.60;6.20;;;28.80;77.50;;;;;;5094123;28;20505;-70
2022/07/03 08:23:41;;;;;;;2.43;2.33;;;28.40;78.40;;;;;;5093865;28;20958;-70
2022/07/03 08:26:08;;;;;;;2.30;2.20;;;28.20;75.70;;;;;;5093932;28;21020;-70
2022/07/03 08:28:34;;;;;;;2.67;2.57;;;28.20;78.00;;;;;;5093952;28;20469;-70
2022/07/03 08:31:01;;;;;;;3.40;3.20;;;28.30;78.60;;;;;;5093876;28;20495;-70
2022/07/03 08:33:28;;;;;;;1.83;1.80;;;28.60;78.40;;;;;;5093665;28;20478;-70
2022/07/03 08:35:57;;;;;;;2.07;1.97;;;29.00;76.20;;;;;;5093770;28;20856;-70
2022/07/03 08:38:29;;;;;;;2.23;2.03;;;29.50;68.50;;;;;;5093783;28;20804;-70
2022/07/03 08:40:58;;;;;;;2.60;2.40;;;29.90;68.40;;;;;;5093508;28;20464;-70
2022/07/03 08:43:25;;;;;;;8.00;7.50;;;30.30;67.40;;;;;;5093464;28;20959;-70
2022/07/03 08:45:54;;;;;;;10.10;9.40;;;31.00;66.40;;;;;;5093697;28;20775;-70
2022/07/03 08:48:23;;;;;;;11.97;11.07;;;31.90;63.80;;;;;;5093566;28;20464;-70
2022/07/03 08:50:51;;;;;;;9.07;8.57;;;31.60;64.30;;;;;;5093756;28;20471;-71
2022/07/03 08:53:20;;;;;;;5.57;5.27;;;32.10;62.50;;;;;;5093612;28;20478;-70
2022/07/03 08:55:49;;;;;;;7.70;7.20;;;33.00;59.60;;;;;;5093418;28;20444;-70
2022/07/03 08:58:16;;;;;;;5.17;4.87;;;33.70;57.90;;;;;;5093336;28;20847;-70
2022/07/03 09:00:44;;;;;;;4.10;3.90;;;34.20;57.60;;;;;;5093343;28;21042;-71
2022/07/03 09:03:12;;;;;;;3.30;3.10;;;34.80;54.20;;;;;;5093613;28;20480;-70
2022/07/03 09:05:39;;;;;;;1.50;1.50;;;35.90;55.00;;;;;;5093368;28;20446;-71
2022/07/03 09:08:07;;;;;;;1.40;1.40;;;37.20;46.50;;;;;;5093514;28;20475;-71
2022/07/03 09:10:36;;;;;;;1.90;1.40;;;38.10;38.70;;;;;;5093340;28;20890;-71
2022/07/03 09:13:04;;;;;;;1.40;1.30;;;37.90;40.40;;;;;;5093241;28;20476;-71
2022/07/03 09:15:31;;;;;;;1.40;1.40;;;37.90;37.70;;;;;;5093229;28;20468;-71
2022/07/03 09:18:02;;;;;;;1.90;1.80;;;38.00;39.20;;;;;;5093491;28;20472;-71
2022/07/03 09:20:34;;;;;;;3.70;3.50;;;39.30;38.70;;;;;;5093224;28;20494;-71
2022/07/03 09:23:15;;;;;;;1.70;1.60;;;40.20;38.20;;;;;;5093235;28;20459;-71
2022/07/03 09:25:54;;;;;;;1.97;1.87;;;41.40;33.50;;;;;;5093287;28;20483;-71
2022/07/03 09:28:22;;;;;;;1.30;1.30;;;41.30;31.80;;;;;;5093773;28;20866;-71
2022/07/03 09:31:02;;;;;;;1.60;1.60;;;41.70;32.40;;;;;;5093327;28;20538;-71
2022/07/03 09:33:29;;;;;;;1.83;1.83;;;42.10;32.60;;;;;;5093066;28;20523;-71
2022/07/03 09:35:57;;;;;;;1.57;1.57;;;42.50;29.80;;;;;;5093214;28;20866;-71
2022/07/03 09:38:24;;;;;;;1.60;1.60;;;42.60;30.30;;;;;;5093262;28;20446;-71
2022/07/03 09:40:56;;;;;;;1.33;1.33;;;42.30;31.60;;;;;;5093685;28;20496;-71
2022/07/03 09:43:25;;;;;;;1.10;1.10;;;42.80;30.20;;;;;;5093301;28;20514;-71
2022/07/03 09:45:55;;;;;;;1.20;1.20;;;43.10;30.20;;;;;;5095522;28;20439;-71
2022/07/03 09:48:27;;;;;;;8.50;8.00;;;43.90;29.60;;;;;;5097065;28;20795;-72
2022/07/03 09:51:09;;;;;;;2.57;2.47;;;43.40;29.40;;;;;;5096998;28;20562;-72
2022/07/03 09:53:45;;;;;;;1.03;1.03;;;44.00;28.70;;;;;;5096710;28;20933;-71
2022/07/03 09:56:13;;;;;;;1.27;1.27;;;44.20;27.60;;;;;;5096791;28;20475;-71
2022/07/03 09:58:40;;;;;;;17.10;16.00;;;44.30;27.70;;;;;;5096788;28;20463;-71
2022/07/03 10:01:17;;;;;;;9.67;9.00;;;44.30;28.70;;;;;;5096778;28;20495;-71
2022/07/03 10:03:44;;;;;;;1.50;1.50;;;44.70;27.70;;;;;;5096578;28;20454;-71
2022/07/03 10:06:11;;;;;;;7.57;7.07;;;44.60;26.90;;;;;;5096486;28;20476;-73
2022/07/03 10:08:38;;;;;;;47.43;43.70;;;45.10;27.20;;;;;;5096575;28;20470;-71
2022/07/03 10:11:06;;;;;;;1.60;1.60;;;44.30;28.90;;;;;;5096284;28;20465;-71
2022/07/03 10:13:38;;;;;;;1.10;1.10;;;44.10;28.10;;;;;;5096524;28;20479;-71
2022/07/03 10:16:06;;;;;;;1.30;1.30;;;43.90;27.00;;;;;;5096233;28;20440;-71
2022/07/03 10:18:36;;;;;;;1.27;1.27;;;43.60;29.20;;;;;;5096447;28;20858;-71
2022/07/03 10:21:06;;;;;;;1.20;1.20;;;43.20;28.20;;;;;;5096269;28;20495;-71
2022/07/03 10:23:33;;;;;;;1.37;1.27;;;42.90;28.90;;;;;;5096383;28;20464;-71
2022/07/03 10:26:00;;;;;;;1.80;1.70;;;42.80;28.80;;;;;;5096156;28;20880;-71
2022/07/03 10:28:28;;;;;;;2.53;2.43;;;41.90;30.80;;;;;;5096280;28;20865;-71
2022/07/03 10:30:56;;;;;;;1.57;1.47;;;41.70;32.90;;;;;;5096230;28;20875;-71
2022/07/03 10:33:24;;;;;;;1.37;1.37;;;41.50;31.10;;;;;;5096316;28;20487;-71
2022/07/03 10:35:53;;;;;;;1.40;1.40;;;41.00;32.10;;;;;;5096047;28;20479;-72
2022/07/03 10:38:36;;;;;;;1.27;1.27;;;40.30;30.70;;;;;;5096170;28;20479;-71
2022/07/03 10:46:38;;;;;;;1.50;1.50;;;37.10;35.00;;;;;;5096028;28;20774;-71
2022/07/03 10:49:07;;;;;;;1.73;1.70;;;36.20;37.20;;;;;;5095632;28;20514;-70
2022/07/03 10:51:52;;;;;;;3.37;1.70;;;35.40;37.20;;;;;;5095478;28;20525;-70
2022/07/03 10:54:20;;;;;;;1.70;1.60;;;34.70;39.00;;;;;;5095898;28;20851;-70
2022/07/03 10:57:08;;;;;;;1.60;1.60;;;34.10;43.60;;;;;;5095422;28;20440;-71
2022/07/03 11:00:01;;;;;;;1.97;1.87;;;33.60;41.80;;;;;;5086746;28;20976;-70
2022/07/03 11:02:33;;;;;;;1.97;1.87;;;33.20;41.70;;;;;;5095460;28;20797;-70
2022/07/03 11:05:37;;;;;;;1.70;1.67;;;32.90;42.00;;;;;;5095190;28;20948;-70
2022/07/03 11:08:12;;;;;;;1.90;1.77;;;32.70;44.10;;;;;;5093086;28;20448;-70
2022/07/03 11:10:42;;;;;;;2.43;2.23;;;32.60;41.30;;;;;;5095186;28;20494;-71
2022/07/03 11:13:20;;;;;;;2.07;1.97;;;32.40;42.80;;;;;;5095517;28;20478;-70
2022/07/03 11:15:49;;;;;;;2.00;1.90;;;32.20;42.90;;;;;;5095227;28;20444;-70
2022/07/03 11:18:20;;;;;;;2.20;2.00;;;31.70;44.80;;;;;;5095311;28;20846;-70
2022/07/03 11:21:23;;;;;;;2.10;2.00;;;31.50;44.30;;;;;;5095276;28;20516;-70
2022/07/03 11:24:19;;;;;;;2.03;1.93;;;31.10;46.20;;;;;;5094963;28;20431;-70
2022/07/03 11:26:46;;;;;;;2.50;2.40;;;31.10;46.50;;;;;;5088391;28;20452;-70
2022/07/03 11:29:28;;;;;;;2.67;2.00;;;30.80;46.80;;;;;;5094951;28;20567;-70
2022/07/03 11:31:55;;;;;;;1.90;1.80;;;30.30;47.80;;;;;;5093075;28;20455;-70
2022/07/03 11:34:23;;;;;;;2.13;2.03;;;30.40;51.50;;;;;;5094706;28;20842;-70
2022/07/03 11:36:50;;;;;;;2.63;1.83;;;30.50;47.20;;;;;;5094930;28;20844;-70
2022/07/03 11:39:20;;;;;;;8.20;7.40;;;30.80;47.30;;;;;;5094909;28;20434;-70
2022/07/03 11:41:48;;;;;;;5.73;5.23;;;31.10;47.00;;;;;;5094535;28;20464;-70
2022/07/03 11:44:17;;;;;;;2.50;2.30;;;31.30;46.50;;;;;;5094627;28;20476;-70
2022/07/03 11:46:52;;;;;;;1.97;1.87;;;31.40;47.10;;;;;;5094646;28;20469;-70
2022/07/03 11:49:20;;;;;;;2.03;1.80;;;31.30;47.00;;;;;;5094653;28;20473;-70
2022/07/03 11:52:00;;;;;;;1.90;1.80;;;31.40;47.80;;;;;;5094629;28;20470;-70
2022/07/03 11:54:31;;;;;;;1.60;1.60;;;31.20;46.30;;;;;;5094492;28;20444;-70
2022/07/03 11:56:58;;;;;;;2.20;2.10;;;31.00;45.90;;;;;;5094612;28;20790;-70
2022/07/03 11:59:25;;;;;;;2.23;2.03;;;30.60;47.20;;;;;;5094434;28;20438;-70
2022/07/03 12:01:51;;;;;;;2.30;2.20;;;30.70;49.30;;;;;;5094541;28;20530;-70
2022/07/03 12:04:21;;;;;;;2.37;2.20;;;31.00;49.60;;;;;;5094027;28;20483;-70
2022/07/03 12:06:51;;;;;;;2.10;2.00;;;31.20;48.40;;;;;;5094716;28;20565;-70
2022/07/03 12:09:22;;;;;;;2.10;2.00;;;31.40;51.00;;;;;;5094015;28;20782;-70
2022/07/03 12:12:00;;;;;;;1.70;1.70;;;31.40;50.20;;;;;;5094252;28;20473;-70
2022/07/03 12:14:44;;;;;;;2.17;2.07;;;31.30;50.60;;;;;;5094141;28;20432;-70
2022/07/03 12:17:13;;;;;;;2.20;2.10;;;31.30;48.70;;;;;;5094212;28;20810;-70
2022/07/03 12:19:46;;;;;;;1.87;1.77;;;31.20;47.70;;;;;;5094059;28;20483;-70
2022/07/03 12:22:13;;;;;;;2.20;2.10;;;31.10;46.70;;;;;;5093858;28;20890;-70
2022/07/03 12:24:42;;;;;;;2.20;2.10;;;31.30;48.00;;;;;;5093930;28;20437;-70
2022/07/03 12:27:09;;;;;;;2.30;2.20;;;31.30;51.00;;;;;;5093879;28;20440;-70
2022/07/03 12:29:37;;;;;;;2.20;2.10;;;31.30;49.30;;;;;;5093926;28;20569;-70
2022/07/03 12:32:11;;;;;;;2.20;2.10;;;31.50;47.80;;;;;;5094043;28;20482;-70
2022/07/03 12:34:39;;;;;;;1.80;1.70;;;31.50;46.90;;;;;;5093676;28;20444;-70
2022/07/03 12:37:06;;;;;;;1.90;1.80;;;31.50;48.60;;;;;;5093711;28;20453;-70
2022/07/03 12:39:44;;;;;;;1.60;1.60;;;31.50;50.10;;;;;;5093856;28;20442;-70
2022/07/03 12:42:19;;;;;;;2.87;2.00;;;31.60;50.90;;;;;;5093643;28;20942;-70
2022/07/03 12:44:56;;;;;;;3.83;2.33;;;31.60;49.60;;;;;;5093481;28;20484;-70
2022/07/03 12:47:24;;;;;;;3.00;2.80;;;31.50;49.60;;;;;;5093920;28;20438;-71
2022/07/03 12:50:00;;;;;;;2.17;1.97;;;31.40;47.20;;;;;;5093388;28;20521;-70
2022/07/03 12:52:27;;;;;;;2.30;2.10;;;31.40;47.90;;;;;;5093861;28;20789;-70
2022/07/03 12:54:56;;;;;;;2.10;2.00;;;31.30;47.90;;;;;;5093282;28;20535;-70
2022/07/03 13:00:10;;;;;;;1.83;1.73;;;31.40;47.90;;;;;;5093459;28;20460;-70
2022/07/03 13:02:38;;;;;;;1.90;1.80;;;31.50;48.50;;;;;;5093649;28;20485;-70
2022/07/03 13:05:16;;;;;;;1.87;1.77;;;31.30;49.10;;;;;;5093676;28;20846;-70
2022/07/03 13:07:44;;;;;;;1.73;1.63;;;31.00;47.60;;;;;;5093161;28;20503;-70
2022/07/03 13:10:14;;;;;;;1.77;1.73;;;30.90;50.30;;;;;;5093459;28;20853;-71
2022/07/03 13:12:48;;;;;;;1.80;1.70;;;30.90;49.70;;;;;;5093590;28;20468;-71
2022/07/03 13:15:16;;;;;;;1.80;1.70;;;31.00;48.90;;;;;;5093360;28;20806;-70